Time,TemperatureF,DewpointF,PressureIn,WindDirection,WindDirectionDegrees,WindSpeedMPH,WindSpeedGustMPH,Humidity,HourlyPrecipIn,Conditions,Clouds,dailyrainin,SoftwareType,DateUTC
2013-03-03 00:00:00,29.7,21.4,29.77,NNW,338,1.1,5.1,71,0.00,,,0.00,WUHU216HW,2013-03-03 05:00:00,
2013-03-03 00:10:00,29.9,21.6,29.77,NW,315,2.7,5.6,71,0.00,,,0.00,WUHU216HW,2013-03-03 05:10:00,
2013-03-03 00:20:00,29.7,21.4,29.77,NNW,338,1.8,9.8,71,0.00,,,0.00,WUHU216HW,2013-03-03 05:20:00,
2013-03-03 00:30:00,29.5,21.6,29.77,North,0,1.3,6.3,72,0.00,,,0.00,WUHU216HW,2013-03-03 05:30:00,
2013-03-03 00:40:00,29.5,21.2,29.78,NNW,338,1.1,7.2,71,0.00,,,0.00,WUHU216HW,2013-03-03 05:40:00,
2013-03-03 00:50:00,29.5,21.2,29.78,NNW,338,3.4,5.8,71,0.00,,,0.00,WUHU216HW,2013-03-03 05:50:00,
2013-03-03 01:00:00,29.5,21.2,29.78,North,0,8.5,8.5,71,0.00,,,0.00,WUHU216HW,2013-03-03 06:00:00,
2013-03-03 01:10:00,29.5,21.2,29.78,NNE,23,3.6,5.4,71,0.00,,,0.00,WUHU216HW,2013-03-03 06:10:00,
2013-03-03 01:20:00,29.3,21.1,29.78,NNW,338,3.4,6.9,71,0.00,,,0.00,WUHU216HW,2013-03-03 06:20:00,
2013-03-03 01:30:00,29.3,21.1,29.78,North,0,2.7,5.6,71,0.00,,,0.00,WUHU216HW,2013-03-03 06:30:00,
2013-03-03 01:40:00,29.3,21.1,29.78,NNW,338,1.1,5.6,71,0.00,,,0.00,WUHU216HW,2013-03-03 06:40:00,
2013-03-03 01:50:00,29.2,21.2,29.78,North,0,2.0,5.6,72,0.00,,,0.00,WUHU216HW,2013-03-03 06:50:00,
2013-03-03 02:00:00,29.2,21.2,29.77,West,270,1.8,7.8,72,0.00,,,0.00,WUHU216HW,2013-03-03 07:00:00,
2013-03-03 02:10:00,29.2,21.2,29.77,NW,315,1.1,4.9,72,0.00,,,0.00,WUHU216HW,2013-03-03 07:10:00,
2013-03-03 02:20:00,29.0,20.8,29.77,North,0,2.2,8.5,71,0.00,,,0.00,WUHU216HW,2013-03-03 07:20:00,
2013-03-03 02:30:00,28.8,20.6,29.76,SW,225,2.9,4.5,71,0.00,,,0.00,WUHU216HW,2013-03-03 07:30:00,
2013-03-03 02:40:00,28.8,20.6,29.76,NNE,23,11.2,11.2,71,0.00,,,0.00,WUHU216HW,2013-03-03 07:40:00,
2013-03-03 02:50:00,28.8,20.4,29.76,North,0,1.1,4.3,70,0.00,,,0.00,WUHU216HW,2013-03-03 07:50:00,
2013-03-03 03:00:00,28.6,20.2,29.76,NW,315,2.5,2.7,70,0.00,,,0.00,WUHU216HW,2013-03-03 08:00:00,
2013-03-03 03:10:00,28.6,20.2,29.75,North,0,2.5,8.3,70,0.00,,,0.00,WUHU216HW,2013-03-03 08:10:00,
2013-03-03 03:20:00,28.6,19.8,29.75,NNW,338,3.4,8.5,69,0.00,,,0.00,WUHU216HW,2013-03-03 08:20:00,
2013-03-03 03:30:00,28.4,20.0,29.75,NW,315,1.1,7.4,70,0.00,,,0.00,WUHU216HW,2013-03-03 08:30:00,
2013-03-03 03:40:00,28.4,19.6,29.75,North,0,2.7,4.3,69,0.00,,,0.00,WUHU216HW,2013-03-03 08:40:00,
2013-03-03 03:50:00,28.4,19.6,29.75,NW,315,2.2,7.6,69,0.00,,,0.00,WUHU216HW,2013-03-03 08:50:00,
2013-03-03 04:00:00,28.4,19.6,29.75,NW,315,5.4,9.6,69,0.00,,,0.00,WUHU216HW,2013-03-03 09:00:00,
2013-03-03 04:10:00,28.4,19.6,29.75,NNW,338,0.4,2.5,69,0.00,,,0.00,WUHU216HW,2013-03-03 09:10:00,
2013-03-03 04:20:00,28.4,19.6,29.76,NW,315,4.0,4.7,69,0.00,,,0.00,WUHU216HW,2013-03-03 09:20:00,
2013-03-03 04:30:00,28.4,19.3,29.75,NNW,338,4.0,4.0,68,0.00,,,0.00,WUHU216HW,2013-03-03 09:30:00,
2013-03-03 05:06:00,28.1,19.3,29.76,NW,315,2.0,4.9,69,0.00,,,0.00,WUHU216HW,2013-03-03 10:06:00,
2013-03-03 05:16:00,28.1,19.3,29.77,North,0,1.3,6.3,69,0.00,,,0.00,WUHU216HW,2013-03-03 10:16:00,
2013-03-03 05:26:00,28.1,19.3,29.77,North,0,1.6,2.7,69,0.00,,,0.00,WUHU216HW,2013-03-03 10:26:00,
2013-03-03 05:36:00,27.9,19.1,29.77,WSW,248,0.2,4.9,69,0.00,,,0.00,WUHU216HW,2013-03-03 10:36:00,
2013-03-03 05:46:00,27.9,19.4,29.77,North,0,3.4,3.6,70,0.00,,,0.00,WUHU216HW,2013-03-03 10:46:00,
2013-03-03 05:56:00,27.9,19.4,29.77,North,0,2.5,4.3,70,0.00,,,0.00,WUHU216HW,2013-03-03 10:56:00,
2013-03-03 06:06:00,27.9,19.4,29.77,NNW,338,0.9,4.0,70,0.00,,,0.00,WUHU216HW,2013-03-03 11:06:00,
2013-03-03 06:16:00,27.7,19.3,29.77,North,0,0.9,4.0,70,0.00,,,0.00,WUHU216HW,2013-03-03 11:16:00,
2013-03-03 06:26:00,27.7,19.3,29.77,NW,315,1.3,3.4,70,0.00,,,0.00,WUHU216HW,2013-03-03 11:26:00,
2013-03-03 06:36:00,27.7,19.3,29.77,NNW,338,0.4,3.4,70,0.00,,,0.00,WUHU216HW,2013-03-03 11:36:00,
2013-03-03 06:46:00,27.7,19.3,29.77,West,270,1.1,5.8,70,0.00,,,0.00,WUHU216HW,2013-03-03 11:46:00,
2013-03-03 06:56:00,27.7,19.3,29.77,North,0,3.1,4.3,70,0.00,,,0.00,WUHU216HW,2013-03-03 11:56:00,
2013-03-03 07:06:00,27.9,19.4,29.78,NNW,338,1.3,3.8,70,0.00,,,0.00,WUHU216HW,2013-03-03 12:06:00,
2013-03-03 07:16:00,27.9,19.4,29.78,North,0,2.5,8.5,70,0.00,,,0.00,WUHU216HW,2013-03-03 12:16:00,
2013-03-03 07:26:00,28.1,19.6,29.78,NNW,338,4.0,6.3,70,0.00,,,0.00,WUHU216HW,2013-03-03 12:26:00,
2013-03-03 07:36:00,28.1,19.6,29.78,NW,315,1.1,4.7,70,0.00,,,0.00,WUHU216HW,2013-03-03 12:36:00,
2013-03-03 07:46:00,28.3,19.8,29.78,NNW,338,0.4,2.9,70,0.00,,,0.00,WUHU216HW,2013-03-03 12:46:00,
2013-03-03 07:56:00,28.4,19.6,29.78,NNW,338,2.9,4.0,69,0.00,,,0.00,WUHU216HW,2013-03-03 12:56:00,
2013-03-03 08:06:00,28.4,19.3,29.78,North,0,3.6,6.7,68,0.00,,,0.00,WUHU216HW,2013-03-03 13:06:00,
2013-03-03 08:16:00,28.6,19.8,29.78,North,0,4.3,4.3,69,0.00,,,0.00,WUHU216HW,2013-03-03 13:16:00,
2013-03-03 08:26:00,28.8,19.3,29.78,NW,315,1.8,8.3,67,0.00,,,0.00,WUHU216HW,2013-03-03 13:26:00,
2013-03-03 08:36:00,29.2,19.5,29.78,NW,315,1.1,6.3,67,0.00,,,0.00,WUHU216HW,2013-03-03 13:36:00,
2013-03-03 08:46:00,29.3,19.4,29.78,NNW,338,0.4,5.6,66,0.00,,,0.00,WUHU216HW,2013-03-03 13:46:00,
2013-03-03 08:56:00,29.9,19.8,29.78,NNW,338,2.5,3.8,66,0.00,,,0.00,WUHU216HW,2013-03-03 13:56:00,
2013-03-03 09:06:00,29.5,19.5,29.78,NNW,338,2.9,5.8,66,0.00,,,0.00,WUHU216HW,2013-03-03 14:06:00,
2013-03-03 09:16:00,29.9,19.8,29.78,NNW,338,1.8,4.7,66,0.00,,,0.00,WUHU216HW,2013-03-03 14:16:00,
2013-03-03 09:26:00,30.1,20.0,29.78,WSW,248,2.0,4.7,66,0.00,,,0.00,WUHU216HW,2013-03-03 14:26:00,
2013-03-03 09:36:00,29.9,19.8,29.78,NNW,338,1.3,4.7,66,0.00,,,0.00,WUHU216HW,2013-03-03 14:36:00,
2013-03-03 09:46:00,30.1,19.6,29.78,West,270,2.5,4.9,65,0.00,,,0.00,WUHU216HW,2013-03-03 14:46:00,
2013-03-03 09:56:00,29.9,19.4,29.78,NNW,338,1.1,6.9,65,0.00,,,0.00,WUHU216HW,2013-03-03 14:56:00,
2013-03-03 10:06:00,30.2,19.8,29.78,NW,315,1.3,5.4,65,0.00,,,0.00,WUHU216HW,2013-03-03 15:06:00,
2013-03-03 10:16:00,30.6,19.4,29.78,NNW,338,2.9,3.4,63,0.00,,,0.00,WUHU216HW,2013-03-03 15:16:00,
2013-03-03 10:26:00,30.2,18.7,29.78,North,0,2.5,7.6,62,0.00,,,0.00,WUHU216HW,2013-03-03 15:26:00,
2013-03-03 10:36:00,30.4,19.3,29.77,NNE,23,5.4,6.9,63,0.00,,,0.00,WUHU216HW,2013-03-03 15:36:00,
2013-03-03 10:46:00,30.4,18.9,29.78,NNW,338,1.8,4.0,62,0.00,,,0.00,WUHU216HW,2013-03-03 15:46:00,
2013-03-03 10:56:00,31.1,19.6,29.78,WSW,248,4.5,7.2,62,0.00,,,0.00,WUHU216HW,2013-03-03 15:56:00,
2013-03-03 11:06:00,31.1,19.3,29.77,NNW,338,3.1,5.6,61,0.00,,,0.00,WUHU216HW,2013-03-03 16:06:00,
2013-03-03 11:16:00,31.7,19.8,29.77,NE,45,1.6,3.4,61,0.00,,,0.00,WUHU216HW,2013-03-03 16:16:00,
2013-03-03 11:26:00,31.5,19.6,29.78,NNE,23,4.7,5.4,61,0.00,,,0.00,WUHU216HW,2013-03-03 16:26:00,
2013-03-03 11:36:00,31.7,19.8,29.77,NE,45,6.0,6.0,61,0.00,,,0.00,WUHU216HW,2013-03-03 16:36:00,
2013-03-03 11:46:00,32.4,20.5,29.77,NNE,23,2.0,8.1,61,0.00,,,0.00,WUHU216HW,2013-03-03 16:46:00,
2013-03-03 11:56:00,32.9,20.6,29.76,NW,315,3.4,3.4,60,0.00,,,0.00,WUHU216HW,2013-03-03 16:56:00,
2013-03-03 12:06:00,32.9,20.6,29.76,NW,315,3.8,8.7,60,0.00,,,0.00,WUHU216HW,2013-03-03 17:06:00,
2013-03-03 12:16:00,33.1,20.3,29.75,NW,315,3.4,6.3,59,0.00,,,0.00,WUHU216HW,2013-03-03 17:16:00,
2013-03-03 12:26:00,32.9,20.6,29.75,West,270,7.2,7.2,60,0.00,,,0.00,WUHU216HW,2013-03-03 17:26:00,
2013-03-03 12:36:00,33.8,21.8,29.75,WSW,248,1.8,5.8,61,0.00,,,0.00,WUHU216HW,2013-03-03 17:36:00,
2013-03-03 12:47:00,35.1,22.2,29.75,North,0,2.5,4.7,59,0.00,,,0.00,WUHU216HW,2013-03-03 17:47:00,
2013-03-03 12:57:00,35.3,22.0,29.75,NNE,23,4.9,4.9,58,0.00,,,0.00,WUHU216HW,2013-03-03 17:57:00,
2013-03-03 13:07:00,34.7,20.6,29.74,NW,315,5.6,6.9,56,0.00,,,0.00,WUHU216HW,2013-03-03 18:07:00,
2013-03-03 13:17:00,34.9,21.3,29.73,NW,315,2.5,7.4,57,0.00,,,0.00,WUHU216HW,2013-03-03 18:17:00,
2013-03-03 13:27:00,35.1,21.8,29.73,WNW,293,2.9,5.6,58,0.00,,,0.00,WUHU216HW,2013-03-03 18:27:00,
2013-03-03 13:37:00,35.5,22.1,29.73,NW,315,3.1,9.8,58,0.00,,,0.00,WUHU216HW,2013-03-03 18:37:00,
2013-03-03 13:47:00,35.5,21.3,29.73,West,270,5.8,6.5,56,0.00,,,0.00,WUHU216HW,2013-03-03 18:47:00,
2013-03-03 13:57:00,35.6,22.0,29.73,NNW,338,1.1,5.4,57,0.00,,,0.00,WUHU216HW,2013-03-03 18:57:00,
2013-03-03 14:07:00,35.5,21.3,29.73,West,270,4.9,5.4,56,0.00,,,0.00,WUHU216HW,2013-03-03 19:07:00,
2013-03-03 14:17:00,35.5,21.3,29.73,NNE,23,4.3,5.6,56,0.00,,,0.00,WUHU216HW,2013-03-03 19:17:00,
2013-03-03 14:27:00,35.3,22.0,29.73,North,0,2.5,7.8,58,0.00,,,0.00,WUHU216HW,2013-03-03 19:27:00,
2013-03-03 14:34:00,35.3,21.6,29.73,NW,315,1.8,1.8,57,0.00,,,0.00,WUHU216HW,2013-03-03 19:34:00,
2013-03-03 14:43:00,36.0,22.7,29.73,West,270,1.8,8.1,58,0.00,,,0.00,WUHU216HW,2013-03-03 19:43:00,
2013-03-03 14:53:00,36.4,21.7,29.73,West,270,5.1,5.4,55,0.00,,,0.00,WUHU216HW,2013-03-03 19:53:00,
2013-03-03 15:03:00,36.5,21.9,29.73,West,270,1.6,7.2,55,0.00,,,0.00,WUHU216HW,2013-03-03 20:03:00,
2013-03-03 15:13:00,36.5,21.4,29.72,NNW,338,3.8,4.3,54,0.00,,,0.00,WUHU216HW,2013-03-03 20:13:00,
2013-03-03 15:23:00,36.4,22.1,29.72,NW,315,1.3,5.4,56,0.00,,,0.00,WUHU216HW,2013-03-03 20:23:00,
2013-03-03 15:33:00,36.7,22.1,29.73,NW,315,2.5,5.4,55,0.00,,,0.00,WUHU216HW,2013-03-03 20:33:00,
2013-03-03 15:43:00,36.4,21.2,29.73,North,0,3.4,5.4,54,0.00,,,0.00,WUHU216HW,2013-03-03 20:43:00,
2013-03-03 15:53:00,36.0,21.8,29.73,NW,315,3.8,6.3,56,0.00,,,0.00,WUHU216HW,2013-03-03 20:53:00,
2013-03-03 16:03:00,34.9,20.8,29.73,NW,315,0.9,5.8,56,0.00,,,0.00,WUHU216HW,2013-03-03 21:03:00,
2013-03-03 16:13:00,34.7,21.1,29.73,NNW,338,2.7,5.4,57,0.00,,,0.00,WUHU216HW,2013-03-03 21:13:00,
2013-03-03 16:23:00,34.9,20.8,29.73,WNW,293,4.0,5.8,56,0.00,,,0.00,WUHU216HW,2013-03-03 21:23:00,
2013-03-03 16:33:00,35.3,21.6,29.73,NNW,338,6.5,6.5,57,0.00,,,0.00,WUHU216HW,2013-03-03 21:33:00,
2013-03-03 16:43:00,34.9,20.8,29.74,West,270,5.4,5.4,56,0.00,,,0.00,WUHU216HW,2013-03-03 21:43:00,
2013-03-03 16:53:00,34.4,20.3,29.74,NW,315,1.8,4.7,56,0.00,,,0.00,WUHU216HW,2013-03-03 21:53:00,
2013-03-03 17:03:00,34.0,19.9,29.74,North,0,5.8,6.3,56,0.00,,,0.00,WUHU216HW,2013-03-03 22:03:00,
2013-03-03 17:13:00,33.8,19.7,29.74,NNW,338,2.5,5.4,56,0.00,,,0.00,WUHU216HW,2013-03-03 22:13:00,
2013-03-03 17:23:00,33.5,19.8,29.74,NW,315,1.8,5.4,57,0.00,,,0.00,WUHU216HW,2013-03-03 22:23:00,
2013-03-03 17:33:00,32.9,19.7,29.75,NNW,338,2.0,4.0,58,0.00,,,0.00,WUHU216HW,2013-03-03 22:33:00,
2013-03-03 17:43:00,32.8,20.0,29.75,NNW,338,4.7,7.2,59,0.00,,,0.00,WUHU216HW,2013-03-03 22:43:00,
2013-03-03 17:53:00,32.6,20.3,29.75,WNW,293,2.0,4.7,60,0.00,,,0.00,WUHU216HW,2013-03-03 22:53:00,
2013-03-03 18:03:00,32.4,20.2,29.75,West,270,2.0,5.4,60,0.00,,,0.00,WUHU216HW,2013-03-03 23:03:00,
2013-03-03 18:13:00,32.2,20.0,29.76,NNW,338,0.9,2.5,60,0.00,,,0.00,WUHU216HW,2013-03-03 23:13:00,
2013-03-03 18:23:00,32.0,20.2,29.76,WNW,293,2.0,6.7,61,0.00,,,0.00,WUHU216HW,2013-03-03 23:23:00,
2013-03-03 18:33:00,31.9,20.0,29.77,NW,315,0.0,4.7,61,0.00,,,0.00,WUHU216HW,2013-03-03 23:33:00,
2013-03-03 18:43:00,31.9,20.0,29.77,NNE,23,2.7,4.7,61,0.00,,,0.00,WUHU216HW,2013-03-03 23:43:00,
2013-03-03 18:53:00,31.7,19.8,29.77,NNW,338,1.8,6.3,61,0.00,,,0.00,WUHU216HW,2013-03-03 23:53:00,
2013-03-03 19:03:00,31.5,19.6,29.78,West,270,3.1,3.1,61,0.00,,,0.00,WUHU216HW,2013-03-04 00:03:00,
2013-03-03 19:13:00,31.3,19.4,29.78,WNW,293,3.4,5.1,61,0.00,,,0.00,WUHU216HW,2013-03-04 00:13:00,
2013-03-03 19:23:00,31.1,19.6,29.78,NNW,338,3.1,3.1,62,0.00,,,0.00,WUHU216HW,2013-03-04 00:23:00,
2013-03-03 19:33:00,31.0,19.4,29.78,WSW,248,0.9,2.7,62,0.00,,,0.00,WUHU216HW,2013-03-04 00:33:00,
2013-03-03 19:43:00,30.6,19.1,29.79,West,270,2.5,3.8,62,0.00,,,0.00,WUHU216HW,2013-03-04 00:43:00,
2013-03-03 19:53:00,30.6,19.1,29.79,North,0,1.3,5.1,62,0.00,,,0.00,WUHU216HW,2013-03-04 00:53:00,
2013-03-03 20:03:00,30.4,19.3,29.79,North,0,0.2,6.3,63,0.00,,,0.00,WUHU216HW,2013-03-04 01:03:00,
2013-03-03 20:13:00,30.2,19.1,29.79,NNW,338,4.5,6.9,63,0.00,,,0.00,WUHU216HW,2013-03-04 01:13:00,
2013-03-03 20:23:00,30.1,19.3,29.80,North,0,2.0,3.4,64,0.00,,,0.00,WUHU216HW,2013-03-04 01:23:00,
2013-03-03 20:33:00,30.1,19.3,29.80,West,270,1.1,4.7,64,0.00,,,0.00,WUHU216HW,2013-03-04 01:33:00,
2013-03-03 20:43:00,29.9,19.4,29.80,NW,315,2.5,2.5,65,0.00,,,0.00,WUHU216HW,2013-03-04 01:43:00,
2013-03-03 20:54:00,29.9,19.4,29.81,North,0,2.7,3.4,65,0.00,,,0.00,WUHU216HW,2013-03-04 01:54:00,
2013-03-03 21:04:00,29.5,18.8,29.81,NNW,338,1.1,5.1,64,0.00,,,0.00,WUHU216HW,2013-03-04 02:04:00,
2013-03-03 21:14:00,29.3,19.0,29.81,NW,315,4.0,4.7,65,0.00,,,0.00,WUHU216HW,2013-03-04 02:14:00,
2013-03-03 21:24:00,29.2,18.8,29.80,NNW,338,0.7,3.6,65,0.00,,,0.00,WUHU216HW,2013-03-04 02:24:00,
2013-03-03 21:34:00,29.0,18.6,29.80,WSW,248,1.8,6.0,65,0.00,,,0.00,WUHU216HW,2013-03-04 02:34:00,
2013-03-03 21:44:00,29.0,18.6,29.81,NNW,338,1.8,5.6,65,0.00,,,0.00,WUHU216HW,2013-03-04 02:44:00,
2013-03-03 21:54:00,28.8,18.9,29.81,WSW,248,2.0,5.4,66,0.00,,,0.00,WUHU216HW,2013-03-04 02:54:00,
2013-03-03 22:04:00,28.6,18.7,29.81,NNW,338,3.6,5.8,66,0.00,,,0.00,WUHU216HW,2013-03-04 03:04:00,
2013-03-03 22:14:00,28.6,18.7,29.81,NNW,338,5.8,5.8,66,0.00,,,0.00,WUHU216HW,2013-03-04 03:14:00,
2013-03-03 22:24:00,28.4,18.5,29.81,NNW,338,4.7,4.7,66,0.00,,,0.00,WUHU216HW,2013-03-04 03:24:00,
2013-03-03 22:34:00,28.3,18.0,29.80,NNE,23,5.1,5.4,65,0.00,,,0.00,WUHU216HW,2013-03-04 03:34:00,
2013-03-03 22:44:00,28.3,18.0,29.81,North,0,1.8,6.3,65,0.00,,,0.00,WUHU216HW,2013-03-04 03:44:00,
2013-03-03 22:54:00,28.1,18.2,29.81,NNE,23,2.5,5.4,66,0.00,,,0.00,WUHU216HW,2013-03-04 03:54:00,
2013-03-03 23:04:00,27.9,18.0,29.82,NW,315,0.4,4.3,66,0.00,,,0.00,WUHU216HW,2013-03-04 04:04:00,
2013-03-03 23:14:00,27.7,17.8,29.82,West,270,3.4,3.4,66,0.00,,,0.00,WUHU216HW,2013-03-04 04:14:00,
2013-03-03 23:24:00,27.7,17.8,29.81,North,0,0.7,3.6,66,0.00,,,0.00,WUHU216HW,2013-03-04 04:24:00,
2013-03-03 23:34:00,27.5,17.6,29.81,NNW,338,1.1,3.6,66,0.00,,,0.00,WUHU216HW,2013-03-04 04:34:00,
2013-03-03 23:44:00,27.5,17.6,29.82,NNW,338,2.2,5.8,66,0.00,,,0.00,WUHU216HW,2013-03-04 04:44:00,
2013-03-03 23:54:00,27.5,17.3,29.82,North,0,4.5,4.5,65,0.00,,,0.00,WUHU216HW,2013-03-04 04:54:00,